createdAt,value
2022-08-21T00:02:30.725Z,24.3
2022-08-21T00:08:00.470Z,24.3
2022-08-21T00:13:38.734Z,24.3
2022-08-21T00:19:09.675Z,24.3
2022-08-21T00:24:31.922Z,24.3
2022-08-21T00:30:12.580Z,24.3
2022-08-21T00:35:59.763Z,24.3
2022-08-21T00:42:11.265Z,24.3
2022-08-21T00:47:40.533Z,24.3
2022-08-21T00:53:23.780Z,24.3
2022-08-21T00:59:17.368Z,24.3
2022-08-21T01:04:56.686Z,24.3
2022-08-21T01:10:40.937Z,24.3
2022-08-21T01:16:01.685Z,24.3
2022-08-21T01:21:45.034Z,24.3
2022-08-21T01:27:24.912Z,24.3
2022-08-21T01:33:06.129Z,24.3
2022-08-21T01:38:44.098Z,24.3
2022-08-21T01:44:30.122Z,24.3
2022-08-21T01:50:06.804Z,24.3
2022-08-21T01:55:15.094Z,24.3
2022-08-21T02:00:45.972Z,24.3
2022-08-21T02:06:40.219Z,24.3
2022-08-21T02:12:03.402Z,24.3
2022-08-21T02:18:11.883Z,24.3
2022-08-21T02:24:00.701Z,24.3
2022-08-21T02:29:25.533Z,24.3
2022-08-21T02:35:03.470Z,24.3
2022-08-21T02:40:35.162Z,24.3
2022-08-21T02:46:14.195Z,24.3
2022-08-21T02:51:51.198Z,24.3
2022-08-21T02:57:27.771Z,24.3
2022-08-21T03:02:48.126Z,24.3
2022-08-21T03:08:09.851Z,24.3
2022-08-21T03:13:55.275Z,24.3
2022-08-21T03:19:44.391Z,24.4
2022-08-21T03:25:39.612Z,24.3
2022-08-21T03:31:11.473Z,24.3
2022-08-21T03:36:35.328Z,24.3
2022-08-21T03:42:12.205Z,24.3
2022-08-21T03:47:48.822Z,24.3
2022-08-21T03:53:15.693Z,24.3
2022-08-21T03:58:33.701Z,24.2
2022-08-21T04:03:54.047Z,24.2
2022-08-21T04:09:39.036Z,24.1
2022-08-21T04:15:22.350Z,24.1
2022-08-21T04:21:06.779Z,24.1
2022-08-21T04:26:59.257Z,24
2022-08-21T04:32:41.838Z,23.9
2022-08-21T04:38:20.049Z,23.9
2022-08-21T04:44:13.049Z,23.9
2022-08-21T04:50:10.431Z,23.9
2022-08-21T04:55:49.336Z,23.8
2022-08-21T05:01:45.323Z,23.8
2022-08-21T05:06:52.782Z,23.8
2022-08-21T05:12:19.347Z,23.7
2022-08-21T05:18:10.255Z,23.6
2022-08-21T05:23:47.356Z,23.6
2022-08-21T05:29:38.789Z,23.6
2022-08-21T05:35:22.566Z,23.5
2022-08-21T05:41:44.177Z,23.5
2022-08-21T05:47:55.195Z,23.5
2022-08-21T05:53:41.493Z,23.5
2022-08-21T05:59:25.372Z,23.5
2022-08-21T06:05:09.183Z,23.5
2022-08-21T06:10:57.936Z,23.5
2022-08-21T06:16:38.412Z,23.6
2022-08-21T06:22:21.072Z,23.6
2022-08-21T06:28:03.202Z,23.6
2022-08-21T06:33:49.004Z,23.6
2022-08-21T06:39:43.323Z,23.6
2022-08-21T06:45:50.534Z,23.6
2022-08-21T06:51:17.831Z,23.7
2022-08-21T06:57:01.991Z,23.7
2022-08-21T07:02:41.547Z,23.7
2022-08-21T07:08:19.600Z,23.7
2022-08-21T07:14:07.909Z,23.8
2022-08-21T07:19:45.177Z,23.8
2022-08-21T07:25:23.545Z,23.8
2022-08-21T07:31:05.449Z,23.8
2022-08-21T07:36:44.502Z,23.8
2022-08-21T07:42:31.202Z,23.9
2022-08-21T07:48:32.889Z,23.9
2022-08-21T07:54:11.455Z,23.9
2022-08-21T07:59:56.372Z,23.9
2022-08-21T08:05:41.510Z,23.9
2022-08-21T08:11:17.935Z,23.9
2022-08-21T08:17:01.046Z,23.9
2022-08-21T08:22:41.608Z,23.9
2022-08-21T08:28:51.416Z,23.9
2022-08-21T08:34:41.542Z,23.9
2022-08-21T08:40:37.312Z,24
2022-08-21T08:46:50.174Z,24
2022-08-21T08:52:29.140Z,24
2022-08-21T08:57:56.567Z,24
2022-08-21T09:03:38.885Z,24.1
2022-08-21T09:09:16.487Z,24.1
2022-08-21T09:14:37.180Z,24.1
2022-08-21T09:20:20.319Z,24.1
2022-08-21T09:25:59.406Z,24.1
2022-08-21T09:31:36.108Z,24.1
2022-08-21T09:37:24.756Z,24.1
2022-08-21T09:42:52.066Z,24.1
2022-08-21T09:48:33.493Z,24.2
2022-08-21T09:54:18.364Z,24.1
2022-08-21T10:00:09.814Z,24.2
2022-08-21T10:05:48.090Z,24.2
2022-08-21T10:11:33.640Z,24.2
2022-08-21T10:17:14.618Z,24.2
2022-08-21T10:22:55.580Z,24.2
2022-08-21T10:29:20.544Z,24.3
2022-08-21T10:35:11.885Z,24.3
2022-08-21T10:41:38.739Z,24.3
2022-08-21T10:47:05.758Z,24.3
2022-08-21T10:52:52.290Z,24.3
2022-08-21T10:58:39.559Z,24.3
2022-08-21T11:04:01.166Z,24.3
2022-08-21T11:09:55.431Z,24.4
2022-08-21T11:16:20.101Z,24.4
2022-08-21T11:21:44.370Z,24.4
2022-08-21T11:27:32.858Z,24.4
2022-08-21T11:32:58.800Z,24.4
2022-08-21T11:38:43.610Z,24.4
2022-08-21T11:44:21.919Z,24.4
2022-08-21T11:50:04.990Z,24.4
2022-08-21T11:55:42.275Z,24.4
2022-08-21T12:01:20.433Z,24.5
2022-08-21T12:07:14.682Z,24.5
2022-08-21T12:12:56.766Z,24.5
2022-08-21T12:18:44.123Z,24.5
2022-08-21T12:24:35.904Z,24.5
2022-08-21T12:30:14.907Z,24.5
2022-08-21T12:35:59.195Z,24.5
2022-08-21T12:41:41.103Z,24.5
2022-08-21T12:47:13.640Z,24.5
2022-08-21T12:52:46.494Z,24.6
2022-08-21T12:58:24.626Z,24.6
2022-08-21T13:04:04.222Z,24.6
2022-08-21T13:09:53.422Z,24.6
2022-08-21T13:16:10.573Z,24.6
2022-08-21T13:21:59.722Z,24.6
2022-08-21T13:28:22.029Z,24.6
2022-08-21T13:34:11.386Z,24.6
2022-08-21T13:39:50.707Z,24.6
2022-08-21T13:45:34.227Z,24.6
2022-08-21T13:50:57.286Z,24.6
2022-08-21T13:56:35.118Z,24.6
2022-08-21T14:02:14.131Z,24.6
2022-08-21T14:07:56.499Z,24.6
2022-08-21T14:13:47.238Z,24.6
2022-08-21T14:19:39.018Z,24.6
2022-08-21T14:25:18.649Z,24.6
2022-08-21T14:31:00.242Z,24.6
2022-08-21T14:37:07.740Z,24.6
2022-08-21T14:42:31.742Z,24.7
2022-08-21T14:48:36.021Z,24.6
2022-08-21T14:54:23.240Z,24.7
2022-08-21T15:00:08.387Z,24.6
2022-08-21T15:06:05.388Z,24.6
2022-08-21T15:12:15.996Z,24.6
2022-08-21T15:17:52.959Z,24.6
2022-08-21T15:23:46.751Z,24.7
2022-08-21T15:29:25.894Z,24.7
2022-08-21T15:35:13.424Z,24.7
2022-08-21T15:41:08.458Z,24.6
2022-08-21T15:46:49.488Z,24.7
2022-08-21T15:52:33.721Z,24.7
2022-08-21T15:58:17.316Z,24.7
2022-08-21T16:03:57.597Z,24.7
2022-08-21T16:09:56.519Z,24.7
2022-08-21T16:15:37.045Z,24.7
2022-08-21T16:20:58.522Z,24.7
2022-08-21T16:27:00.116Z,24.7
2022-08-21T16:32:47.291Z,24.7
2022-08-21T16:38:31.345Z,24.7
2022-08-21T16:44:11.808Z,24.7
2022-08-21T16:49:56.439Z,24.7
2022-08-21T16:55:37.709Z,24.7
2022-08-21T17:01:18.843Z,24.8
2022-08-21T17:07:03.224Z,24.7
2022-08-21T17:13:02.727Z,24.7
2022-08-21T17:18:41.745Z,24.8
2022-08-21T17:24:20.946Z,24.8
2022-08-21T17:30:01.754Z,24.8
2022-08-21T17:35:42.992Z,24.7
2022-08-21T17:41:27.466Z,24.7
2022-08-21T17:47:04.534Z,24.8
2022-08-21T17:52:51.553Z,24.8
2022-08-21T17:58:29.922Z,24.8
2022-08-21T18:04:16.398Z,24.8
2022-08-21T18:10:02.171Z,24.8
2022-08-21T18:15:29.812Z,24.7
2022-08-21T18:21:12.832Z,24.8
2022-08-21T18:27:03.080Z,24.8
2022-08-21T18:32:47.864Z,24.7
2022-08-21T18:38:35.444Z,24.7
2022-08-21T18:44:55.453Z,24.7
2022-08-21T18:50:45.389Z,24.6
